createdAt,value
2022-09-22T00:00:02.499Z,89.81
2022-09-22T00:01:02.420Z,90.47
2022-09-22T00:02:03.267Z,89.81
2022-09-22T00:03:03.085Z,91.70
2022-09-22T00:04:03.527Z,91.91
2022-09-22T00:05:03.329Z,90.78
2022-09-22T00:06:03.348Z,91.49
2022-09-22T00:07:03.884Z,93.24
2022-09-22T00:08:03.281Z,92.52
2022-09-22T00:09:03.833Z,91.60
2022-09-22T00:10:03.342Z,92.01
2022-09-22T00:11:03.697Z,91.60
2022-09-22T00:12:03.243Z,90.88
2022-09-22T00:13:02.638Z,92.01
2022-09-22T00:14:03.080Z,92.93
2022-09-22T00:15:02.718Z,91.60
2022-09-22T00:16:03.055Z,91.60
2022-09-22T00:17:03.026Z,92.11
2022-09-22T00:18:03.187Z,90.67
2022-09-22T00:19:03.455Z,90.53
2022-09-22T00:20:03.599Z,90.57
2022-09-22T00:21:03.239Z,90.94
2022-09-22T00:22:03.626Z,91.14
2022-09-22T00:23:03.248Z,91.97
2022-09-22T00:24:03.746Z,91.76
2022-09-22T00:25:03.197Z,91.25
2022-09-22T00:26:03.502Z,91.45
2022-09-22T00:27:03.030Z,90.22
2022-09-22T00:28:02.475Z,89.60
2022-09-22T00:29:02.680Z,89.40
2022-09-22T00:30:02.412Z,88.98
2022-09-22T00:31:02.852Z,88.78
2022-09-22T00:32:07.099Z,88.57
2022-09-22T00:33:03.026Z,88.47
2022-09-22T00:34:03.204Z,89.64
2022-09-22T00:35:02.842Z,88.92
2022-09-22T00:36:03.326Z,89.85
2022-09-22T00:37:03.542Z,89.50
2022-09-22T00:38:03.487Z,89.34
2022-09-22T00:39:03.062Z,89.13
2022-09-22T00:40:03.533Z,89.23
2022-09-22T00:41:03.013Z,88.92
2022-09-22T00:42:03.175Z,88.82
2022-09-22T00:43:03.568Z,88.82
2022-09-22T00:44:03.339Z,88.92
2022-09-22T00:45:03.727Z,88.51
2022-09-22T00:46:04.027Z,88.92
2022-09-22T00:47:02.715Z,89.03
2022-09-22T00:48:03.173Z,88.62
2022-09-22T00:49:02.634Z,88.41
2022-09-22T00:50:03.093Z,88.82
2022-09-22T00:51:02.809Z,90.26
2022-09-22T00:52:03.377Z,90.78
2022-09-22T00:53:03.804Z,89.95
2022-09-22T00:54:03.221Z,90.67
2022-09-22T00:55:03.533Z,91.29
2022-09-22T00:56:03.347Z,90.98
2022-09-22T00:57:02.874Z,90.26
2022-09-22T00:58:03.329Z,89.85
2022-09-22T00:59:03.006Z,89.64
2022-09-22T01:00:02.785Z,90.06
2022-09-22T01:01:03.446Z,89.23
2022-09-22T01:02:02.063Z,89.03
2022-09-22T01:03:01.934Z,89.13
2022-09-22T01:04:02.333Z,89.23
2022-09-22T01:05:02.099Z,89.75
2022-09-22T01:06:01.942Z,89.64
2022-09-22T01:07:02.564Z,89.79
2022-09-22T01:08:02.325Z,90.20
2022-09-22T01:09:02.741Z,90.92
2022-09-22T01:10:02.463Z,91.53
2022-09-22T01:11:02.263Z,91.23
2022-09-22T01:12:01.721Z,91.64
2022-09-22T01:13:02.109Z,91.02
2022-09-22T01:14:01.982Z,90.92
2022-09-22T01:15:01.767Z,91.64
2022-09-22T01:16:02.229Z,91.44
2022-09-22T01:17:02.070Z,91.23
2022-09-22T01:18:01.902Z,91.74
2022-09-22T01:19:01.571Z,92.77
2022-09-22T01:20:01.979Z,92.36
2022-09-22T01:21:01.810Z,93.49
2022-09-22T01:22:02.233Z,93.18
2022-09-22T01:23:02.659Z,92.77
2022-09-22T01:24:02.347Z,93.29
2022-09-22T01:25:02.541Z,92.97
2022-09-22T01:26:02.351Z,93.70
2022-09-22T01:27:01.886Z,93.70
2022-09-22T01:28:01.666Z,94.56
2022-09-22T01:29:02.070Z,94.46
2022-09-22T01:30:01.862Z,95.08
2022-09-22T01:31:01.786Z,94.46
2022-09-22T01:32:02.302Z,93.02
2022-09-22T01:33:02.724Z,92.77
2022-09-22T01:34:02.194Z,92.16
2022-09-22T01:35:02.633Z,91.95
2022-09-22T01:36:02.099Z,91.74
2022-09-22T01:37:02.527Z,92.40
2022-09-22T01:38:02.306Z,91.99
2022-09-22T01:39:02.721Z,91.85
2022-09-22T01:40:02.492Z,92.10
2022-09-22T01:41:02.967Z,91.74
2022-09-22T01:42:02.512Z,92.30
2022-09-22T01:43:02.066Z,91.64
2022-09-22T01:44:02.448Z,90.92
2022-09-22T01:45:01.986Z,91.06
2022-09-22T01:46:02.519Z,91.38
2022-09-22T01:47:02.826Z,92.10
2022-09-22T01:48:02.596Z,91.99
2022-09-22T01:49:03.002Z,92.92
2022-09-22T01:50:02.805Z,93.54
2022-09-22T01:51:03.112Z,94.05
2022-09-22T01:52:02.411Z,94.87
2022-09-22T01:53:02.174Z,94.67
2022-09-22T01:54:02.595Z,94.15
2022-09-22T01:55:02.037Z,93.95
2022-09-22T01:56:02.464Z,94.67
2022-09-22T01:57:01.696Z,94.87
2022-09-22T01:58:01.518Z,95.08
2022-09-22T01:59:01.604Z,95.39
2022-09-22T02:00:02.102Z,94.77
2022-09-22T02:01:01.661Z,93.74
2022-09-22T02:02:02.838Z,93.84
2022-09-22T02:03:02.797Z,93.74
2022-09-22T02:04:02.647Z,93.54
2022-09-22T02:05:03.129Z,94.15
2022-09-22T02:06:03.288Z,92.20
2022-09-22T02:07:02.526Z,92.30
2022-09-22T02:08:02.259Z,91.38
2022-09-22T02:09:02.654Z,91.17
2022-09-22T02:10:02.367Z,91.78
2022-09-22T02:11:02.448Z,90.86
2022-09-22T02:12:02.767Z,90.45
2022-09-22T02:13:02.484Z,90.14
2022-09-22T02:14:02.586Z,89.94
2022-09-22T02:15:03.063Z,89.83
2022-09-22T02:16:02.663Z,89.83
2022-09-22T02:17:03.364Z,89.62
2022-09-22T02:18:02.784Z,89.42
2022-09-22T02:19:12.397Z,89.52
2022-09-22T02:20:03.234Z,89.62
2022-09-22T02:21:02.972Z,89.52
2022-09-22T02:22:02.403Z,89.22
2022-09-22T02:23:02.094Z,89.31
2022-09-22T02:24:02.493Z,89.46
2022-09-22T02:25:02.319Z,89.46
2022-09-22T02:26:02.042Z,89.67
2022-09-22T02:27:02.459Z,90.28
2022-09-22T02:28:02.029Z,90.18
2022-09-22T02:29:02.048Z,90.28
2022-09-22T02:30:02.449Z,90.39
2022-09-22T02:31:20.444Z,90.18
2022-09-22T02:32:03.144Z,89.97
2022-09-22T02:33:02.876Z,90.08
2022-09-22T02:34:02.654Z,90.18
2022-09-22T02:35:03.042Z,90.59
2022-09-22T02:36:02.662Z,90.28
2022-09-22T02:37:03.143Z,90.08
2022-09-22T02:38:02.878Z,90.39
2022-09-22T02:39:03.213Z,90.49
2022-09-22T02:40:02.953Z,90.69
2022-09-22T02:41:03.247Z,91.46
2022-09-22T02:42:03.282Z,90.94
2022-09-22T02:43:03.269Z,90.73
2022-09-22T02:44:02.732Z,91.05
2022-09-22T02:45:03.235Z,91.05
2022-09-22T02:46:02.949Z,91.05
2022-09-22T02:47:02.549Z,91.56
2022-09-22T02:48:02.271Z,91.25
2022-09-22T02:49:02.102Z,91.25
2022-09-22T02:50:02.102Z,90.94
2022-09-22T02:51:02.615Z,90.94
2022-09-22T02:52:02.759Z,90.84
2022-09-22T02:53:02.504Z,91.05
2022-09-22T02:54:02.914Z,91.15
2022-09-22T02:55:02.303Z,91.15
2022-09-22T02:56:02.635Z,91.15
2022-09-22T02:57:02.860Z,91.15
2022-09-22T02:58:02.664Z,91.05
2022-09-22T02:59:02.555Z,91.05
2022-09-22T03:00:02.941Z,91.36
2022-09-22T03:01:02.773Z,91.15
2022-09-22T03:02:03.198Z,90.84
2022-09-22T03:03:02.919Z,90.73
2022-09-22T03:04:02.663Z,90.43
2022-09-22T03:05:03.252Z,90.84
2022-09-22T03:06:03.091Z,91.05
2022-09-22T03:07:02.591Z,90.84
2022-09-22T03:08:02.348Z,90.94
2022-09-22T03:09:02.007Z,90.73
2022-09-22T03:10:02.135Z,91.15
2022-09-22T03:11:02.562Z,90.84
2022-09-22T03:12:02.710Z,91.15
2022-09-22T03:13:16.560Z,90.43
2022-09-22T03:14:02.414Z,90.12
2022-09-22T03:15:02.381Z,89.81
2022-09-22T03:16:02.830Z,91.25
2022-09-22T03:17:03.136Z,90.22
2022-09-22T03:18:02.710Z,89.91
2022-09-22T03:19:02.831Z,89.81
2022-09-22T03:20:02.514Z,89.50
2022-09-22T03:21:02.934Z,89.61
2022-09-22T03:22:02.796Z,89.40
2022-09-22T03:23:02.967Z,89.09
2022-09-22T03:24:02.731Z,88.99
2022-09-22T03:25:03.151Z,89.09
2022-09-22T03:26:02.655Z,89.03
2022-09-22T03:27:02.811Z,88.99
2022-09-22T03:28:02.601Z,89.09
2022-09-22T03:29:02.639Z,89.09
2022-09-22T03:30:02.342Z,89.44
2022-09-22T03:31:02.214Z,89.54
2022-09-22T03:32:01.941Z,89.34
2022-09-22T03:33:02.412Z,89.54
2022-09-22T03:34:02.251Z,89.54
2022-09-22T03:35:01.960Z,89.85
2022-09-22T03:36:02.387Z,89.65
2022-09-22T03:37:01.861Z,89.54
2022-09-22T03:38:02.276Z,89.65
2022-09-22T03:39:01.969Z,89.85
2022-09-22T03:40:02.325Z,89.85
2022-09-22T03:41:02.060Z,90.16
2022-09-22T03:42:02.450Z,90.57
2022-09-22T03:43:02.945Z,91.30
2022-09-22T03:44:02.550Z,91.13
2022-09-22T03:45:03.082Z,91.03
2022-09-22T03:46:02.690Z,90.72
2022-09-22T03:47:02.532Z,91.03
2022-09-22T03:48:02.988Z,91.24
2022-09-22T03:49:02.839Z,90.92
2022-09-22T03:50:02.663Z,90.41
2022-09-22T03:51:03.145Z,90.20
2022-09-22T03:52:02.550Z,89.89
2022-09-22T03:53:02.961Z,89.69
2022-09-22T03:54:02.678Z,89.79
2022-09-22T03:55:03.115Z,90.00
2022-09-22T03:56:02.791Z,89.79
2022-09-22T03:57:02.271Z,89.89
2022-09-22T03:58:02.619Z,89.89
2022-09-22T03:59:02.611Z,89.79
2022-09-22T04:00:02.352Z,89.58
2022-09-22T04:01:02.351Z,89.69
2022-09-22T04:02:02.891Z,89.69
2022-09-22T04:03:02.710Z,89.58
2022-09-22T04:04:02.991Z,89.48
2022-09-22T04:05:02.670Z,89.69
2022-09-22T04:06:03.100Z,89.79
2022-09-22T04:07:07.087Z,89.79
2022-09-22T04:08:02.257Z,90.00
2022-09-22T04:09:02.704Z,89.89
2022-09-22T04:10:02.305Z,90.10
2022-09-22T04:11:02.581Z,90.10
2022-09-22T04:12:02.282Z,90.00
2022-09-22T04:13:02.453Z,89.89
2022-09-22T04:14:02.313Z,90.00
2022-09-22T04:15:02.769Z,89.79
2022-09-22T04:16:02.247Z,89.69
2022-09-22T04:17:02.615Z,89.48
2022-09-22T04:18:02.935Z,89.42
2022-09-22T04:19:02.969Z,89.62
2022-09-22T04:20:02.688Z,89.73
2022-09-22T04:21:03.035Z,89.32
2022-09-22T04:22:02.743Z,89.01
2022-09-22T04:23:03.143Z,88.90
2022-09-22T04:24:02.869Z,88.59
2022-09-22T04:25:03.274Z,88.70
2022-09-22T04:26:02.734Z,88.80
2022-09-22T04:27:19.054Z,89.01
2022-09-22T04:28:05.581Z,89.11
2022-09-22T04:29:02.243Z,89.42
2022-09-22T04:30:02.672Z,89.52
2022-09-22T04:31:02.231Z,89.62
2022-09-22T04:32:02.649Z,89.83
2022-09-22T04:33:02.991Z,89.42
2022-09-22T04:34:06.910Z,89.22
2022-09-22T04:35:03.015Z,89.11
2022-09-22T04:36:02.710Z,89.01
2022-09-22T04:37:03.189Z,89.32
2022-09-22T04:38:03.574Z,89.32
2022-09-22T04:39:02.994Z,89.22
2022-09-22T04:40:03.430Z,89.32
2022-09-22T04:41:03.161Z,89.11
2022-09-22T04:42:02.485Z,89.11
2022-09-22T04:43:02.909Z,90.14
2022-09-22T04:44:02.718Z,89.62
2022-09-22T04:45:02.493Z,89.62
2022-09-22T04:46:03.069Z,89.56
2022-09-22T04:47:02.422Z,89.32
2022-09-22T04:48:02.575Z,89.56
2022-09-22T04:49:02.494Z,89.77
2022-09-22T04:50:02.233Z,89.67
2022-09-22T04:51:02.047Z,89.67
2022-09-22T04:52:02.357Z,89.56
2022-09-22T04:53:02.262Z,89.56
2022-09-22T04:54:02.701Z,89.46
2022-09-22T04:55:02.495Z,89.36
2022-09-22T04:56:02.644Z,89.05
2022-09-22T04:57:03.117Z,89.25
2022-09-22T04:58:02.992Z,89.05
2022-09-22T04:59:03.002Z,88.95
2022-09-22T05:00:02.836Z,88.84
2022-09-22T05:01:03.250Z,88.95
2022-09-22T05:02:02.769Z,88.84
2022-09-22T05:03:03.031Z,89.46
2022-09-22T05:04:02.563Z,89.46
2022-09-22T05:05:03.013Z,89.15
2022-09-22T05:06:02.641Z,89.36
2022-09-22T05:07:03.269Z,89.46
2022-09-22T05:08:03.075Z,89.77
2022-09-22T05:09:02.974Z,89.77
2022-09-22T05:10:02.843Z,89.77
2022-09-22T05:11:03.400Z,89.67
2022-09-22T05:12:02.971Z,89.56
2022-09-22T05:13:02.861Z,90.49
2022-09-22T05:14:02.642Z,90.49
2022-09-22T05:15:03.127Z,90.59
2022-09-22T05:16:03.239Z,90.80
2022-09-22T05:17:02.651Z,90.49
2022-09-22T05:18:02.650Z,90.39
2022-09-22T05:19:02.227Z,90.19
2022-09-22T05:20:02.729Z,90.19
2022-09-22T05:21:02.275Z,90.19
2022-09-22T05:22:02.912Z,90.64
2022-09-22T05:23:02.598Z,90.19
2022-09-22T05:24:02.303Z,90.19
2022-09-22T05:25:02.221Z,90.02
2022-09-22T05:26:02.736Z,89.87
2022-09-22T05:27:03.257Z,89.87
2022-09-22T05:28:03.096Z,89.92
2022-09-22T05:29:03.118Z,89.81
2022-09-22T05:30:02.978Z,89.71
2022-09-22T05:31:02.809Z,90.02
2022-09-22T05:32:03.471Z,90.12
2022-09-22T05:33:03.422Z,90.43
2022-09-22T05:34:03.259Z,90.33
2022-09-22T05:35:02.854Z,90.12
2022-09-22T05:36:03.117Z,89.92
2022-09-22T05:37:02.758Z,89.92
2022-09-22T05:38:02.350Z,90.02
2022-09-22T05:39:02.799Z,90.12
2022-09-22T05:40:02.501Z,90.02
2022-09-22T05:41:02.282Z,90.33
2022-09-22T05:42:02.269Z,90.33
2022-09-22T05:43:02.515Z,90.22
2022-09-22T05:44:02.565Z,90.12
2022-09-22T05:45:02.511Z,90.74
2022-09-22T05:46:02.522Z,90.43
2022-09-22T05:47:03.150Z,90.53
2022-09-22T05:48:02.544Z,90.33
2022-09-22T05:49:03.112Z,90.12
2022-09-22T05:50:02.866Z,90.22
2022-09-22T05:51:02.587Z,90.12
2022-09-22T05:52:03.394Z,89.92
2022-09-22T05:53:02.993Z,90.02
2022-09-22T05:54:02.810Z,90.02
2022-09-22T05:55:03.338Z,90.22
2022-09-22T05:56:03.021Z,90.33
2022-09-22T05:57:02.606Z,90.22
2022-09-22T05:58:02.319Z,90.80
2022-09-22T05:59:02.185Z,91.32
2022-09-22T06:00:02.042Z,91.11
2022-09-22T06:01:02.136Z,90.91
2022-09-22T06:02:13.366Z,91.11
2022-09-22T06:03:02.127Z,90.91
2022-09-22T06:04:02.231Z,90.80
2022-09-22T06:05:02.128Z,90.59
2022-09-22T06:06:02.674Z,90.80
2022-09-22T06:07:02.966Z,90.91
2022-09-22T06:08:02.527Z,90.70
2022-09-22T06:09:02.747Z,90.39
2022-09-22T06:10:02.590Z,90.39
2022-09-22T06:11:02.430Z,90.39
2022-09-22T06:12:02.954Z,90.49
2022-09-22T06:13:02.304Z,90.70
2022-09-22T06:14:02.822Z,90.70
2022-09-22T06:15:02.595Z,90.80
2022-09-22T06:16:02.509Z,90.80
2022-09-22T06:17:02.352Z,91.32
2022-09-22T06:18:02.597Z,91.63
2022-09-22T06:19:02.458Z,91.94
2022-09-22T06:20:02.892Z,91.83
2022-09-22T06:21:02.768Z,92.04
2022-09-22T06:22:02.021Z,91.94
2022-09-22T06:23:01.908Z,92.00
2022-09-22T06:24:01.911Z,92.31
2022-09-22T06:25:01.924Z,92.61
2022-09-22T06:26:02.455Z,92.51
2022-09-22T06:27:02.418Z,92.41
2022-09-22T06:28:02.390Z,92.00
2022-09-22T06:29:02.712Z,92.21
2022-09-22T06:30:02.578Z,92.72
2022-09-22T06:31:02.486Z,93.03
2022-09-22T06:32:02.186Z,93.03
2022-09-22T06:33:02.163Z,93.13
2022-09-22T06:34:05.498Z,93.24
2022-09-22T06:35:02.630Z,93.40
2022-09-22T06:36:02.293Z,93.50
2022-09-22T06:37:02.152Z,93.30
2022-09-22T06:38:02.663Z,93.09
2022-09-22T06:39:02.379Z,92.88
2022-09-22T06:40:02.370Z,92.68
2022-09-22T06:41:02.334Z,92.99
2022-09-22T06:42:02.188Z,93.25
2022-09-22T06:43:02.611Z,94.28
2022-09-22T06:44:02.677Z,94.38
2022-09-22T06:45:02.442Z,94.49
2022-09-22T06:46:02.466Z,94.08
2022-09-22T06:47:02.375Z,93.87
2022-09-22T06:48:06.311Z,93.73
2022-09-22T06:49:02.413Z,93.93
2022-09-22T06:50:02.392Z,94.03
2022-09-22T06:51:02.365Z,94.65
2022-09-22T06:52:02.055Z,94.40
2022-09-22T06:53:02.022Z,94.71
2022-09-22T06:54:02.091Z,95.53
2022-09-22T06:55:02.166Z,96.15
2022-09-22T06:56:02.119Z,95.70
2022-09-22T06:57:02.154Z,95.80
2022-09-22T06:58:02.801Z,96.21
2022-09-22T06:59:10.622Z,96.37
2022-09-22T07:00:02.773Z,97.30
2022-09-22T07:01:05.192Z,97.25
2022-09-22T07:02:02.674Z,97.15
2022-09-22T07:03:02.983Z,96.90
2022-09-22T07:04:02.648Z,96.90
2022-09-22T07:05:02.612Z,96.55
2022-09-22T07:06:02.467Z,96.23
2022-09-22T07:07:02.171Z,96.23
2022-09-22T07:08:02.055Z,96.40
2022-09-22T07:09:02.522Z,96.30
2022-09-22T07:10:02.405Z,95.68
2022-09-22T07:11:02.568Z,95.43
2022-09-22T07:12:02.260Z,95.43
2022-09-22T07:13:02.287Z,94.98
2022-09-22T07:14:02.296Z,94.87
2022-09-22T07:15:02.082Z,94.67
2022-09-22T07:16:02.523Z,94.62
2022-09-22T07:17:02.877Z,94.42
2022-09-22T07:18:02.496Z,94.17
2022-09-22T07:19:02.578Z,94.07
2022-09-22T07:20:02.613Z,93.62
2022-09-22T07:21:02.780Z,93.00
2022-09-22T07:22:02.585Z,92.59
2022-09-22T07:23:02.344Z,92.08
2022-09-22T07:24:02.756Z,92.55
2022-09-22T07:25:02.701Z,92.44
2022-09-22T07:26:02.492Z,92.44
2022-09-22T07:27:02.621Z,92.19
2022-09-22T07:28:02.751Z,92.10
2022-09-22T07:29:02.847Z,91.99
2022-09-22T07:30:02.347Z,91.64
2022-09-22T07:31:02.386Z,91.33
2022-09-22T07:32:01.895Z,91.64
2022-09-22T07:33:01.962Z,91.60
2022-09-22T07:34:01.987Z,91.70
2022-09-22T07:35:02.217Z,91.29
2022-09-22T07:36:01.806Z,90.53
2022-09-22T07:37:02.533Z,90.64
2022-09-22T07:38:02.719Z,90.02
2022-09-22T07:39:02.653Z,89.67
2022-09-22T07:40:02.621Z,89.78
2022-09-22T07:41:02.314Z,89.67
2022-09-22T07:42:02.096Z,88.82
2022-09-22T07:43:02.125Z,88.31
2022-09-22T07:44:02.087Z,87.59
2022-09-22T07:45:01.937Z,86.94
2022-09-22T07:46:02.178Z,86.94
2022-09-22T07:47:02.777Z,87.45
2022-09-22T07:48:02.770Z,86.12
2022-09-22T07:49:02.611Z,86.18
2022-09-22T07:50:02.555Z,86.69
2022-09-22T07:51:02.405Z,86.39
2022-09-22T07:52:02.190Z,85.16
2022-09-22T07:53:02.249Z,84.51
2022-09-22T07:54:02.198Z,85.22
2022-09-22T07:55:02.065Z,85.84
2022-09-22T07:56:02.454Z,85.63
2022-09-22T07:57:01.895Z,84.37
2022-09-22T07:58:02.118Z,84.78
2022-09-22T07:59:01.938Z,84.58
2022-09-22T08:00:01.774Z,84.58
2022-09-22T08:01:01.948Z,83.82
2022-09-22T08:02:02.706Z,83.62
2022-09-22T08:03:02.801Z,84.74
2022-09-22T08:04:02.814Z,84.03
2022-09-22T08:05:02.865Z,83.21
2022-09-22T08:06:06.115Z,83.07
2022-09-22T08:07:02.481Z,82.26
2022-09-22T08:08:02.503Z,82.87
2022-09-22T08:09:02.490Z,82.15
2022-09-22T08:10:02.497Z,83.48
2022-09-22T08:11:02.421Z,84.25
2022-09-22T08:12:02.068Z,83.44
2022-09-22T08:13:01.981Z,82.21
2022-09-22T08:14:01.801Z,81.91
2022-09-22T08:15:01.789Z,81.98
2022-09-22T08:16:01.967Z,81.67
2022-09-22T08:17:02.692Z,81.77
2022-09-22T08:18:02.755Z,81.06
2022-09-22T08:19:02.766Z,81.93
2022-09-22T08:20:02.749Z,82.65
2022-09-22T08:21:02.690Z,81.63
2022-09-22T08:22:02.133Z,80.62
2022-09-22T08:23:01.931Z,81.12
2022-09-22T08:24:01.943Z,81.12
2022-09-22T08:25:02.159Z,80.72
2022-09-22T08:26:01.868Z,81.19
2022-09-22T08:27:02.615Z,80.88
2022-09-22T08:28:02.284Z,80.68
2022-09-22T08:29:02.282Z,80.94
2022-09-22T08:30:02.108Z,81.56
2022-09-22T08:31:02.164Z,82.06
2022-09-22T08:32:02.270Z,81.56
2022-09-22T08:33:02.069Z,81.15
2022-09-22T08:34:02.235Z,81.31
2022-09-22T08:35:01.917Z,81.62
2022-09-22T08:36:01.793Z,81.41
2022-09-22T08:37:02.453Z,80.06
2022-09-22T08:38:02.357Z,80.77
2022-09-22T08:39:02.211Z,80.06
2022-09-22T08:40:02.351Z,80.26
2022-09-22T08:41:01.969Z,80.32
2022-09-22T08:42:01.536Z,79.51
2022-09-22T08:43:02.142Z,78.70
2022-09-22T08:44:02.201Z,79.21
2022-09-22T08:45:01.990Z,79.11
2022-09-22T08:46:01.981Z,79.27
2022-09-22T08:47:02.651Z,79.27
2022-09-22T08:48:02.524Z,78.97
2022-09-22T08:49:02.594Z,79.27
2022-09-22T08:50:02.635Z,79.17
2022-09-22T08:51:02.584Z,78.83
2022-09-22T08:52:02.115Z,78.93
2022-09-22T08:53:02.259Z,77.92
2022-09-22T08:54:06.924Z,78.22
2022-09-22T08:55:02.729Z,78.33
2022-09-22T08:56:02.477Z,79.24
2022-09-22T08:57:03.129Z,80.31
2022-09-22T08:58:02.909Z,80.31
2022-09-22T08:59:02.610Z,79.91
2022-09-22T09:00:03.007Z,78.86
2022-09-22T09:01:02.765Z,77.14
2022-09-22T09:02:02.048Z,78.66
2022-09-22T09:03:02.028Z,77.84
2022-09-22T09:04:02.000Z,77.84
2022-09-22T09:05:01.992Z,77.91
2022-09-22T09:06:02.630Z,76.90
2022-09-22T09:07:02.180Z,77.00
2022-09-22T09:08:02.528Z,76.39
2022-09-22T09:09:05.025Z,76.29
2022-09-22T09:10:02.266Z,77.20
2022-09-22T09:11:02.596Z,76.56
2022-09-22T09:12:02.623Z,77.57
2022-09-22T09:13:03.135Z,76.97
2022-09-22T09:14:02.805Z,76.76
2022-09-22T09:15:02.651Z,76.35
2022-09-22T09:16:02.666Z,77.06
2022-09-22T09:17:02.078Z,76.82
2022-09-22T09:18:02.508Z,77.43
2022-09-22T09:19:02.544Z,76.82
2022-09-22T09:20:02.440Z,76.82
2022-09-22T09:21:02.458Z,76.28
2022-09-22T09:22:02.390Z,75.78
2022-09-22T09:23:02.374Z,77.90
2022-09-22T09:26:02.843Z,76.75
2022-09-22T09:27:01.922Z,76.35
2022-09-22T09:28:02.082Z,76.04
2022-09-22T09:29:06.021Z,76.62
2022-09-22T09:30:02.172Z,76.21
2022-09-22T09:31:02.394Z,75.91
2022-09-22T09:32:02.777Z,78.33
2022-09-22T09:33:02.491Z,79.61
2022-09-22T09:34:02.403Z,79.50
2022-09-22T09:35:02.281Z,79.27
2022-09-22T09:36:02.274Z,78.36
2022-09-22T09:37:02.072Z,79.67
2022-09-22T09:38:02.289Z,78.83
2022-09-22T09:39:02.202Z,78.52
2022-09-22T09:40:01.936Z,76.00
2022-09-22T09:41:01.889Z,73.38
2022-09-22T09:42:02.544Z,72.94
2022-09-22T09:43:03.377Z,75.26
2022-09-22T09:44:02.699Z,75.96
2022-09-22T09:45:02.762Z,74.42
2022-09-22T09:46:03.029Z,72.91
2022-09-22T09:47:02.806Z,71.91
2022-09-22T09:48:03.110Z,72.27
2022-09-22T09:49:03.121Z,73.48
2022-09-22T09:50:03.061Z,74.38
2022-09-22T09:51:02.890Z,75.46
2022-09-22T09:52:02.326Z,75.76
2022-09-22T09:53:02.347Z,74.05
2022-09-22T09:54:02.377Z,74.62
2022-09-22T09:55:02.330Z,69.79
2022-09-22T09:56:02.257Z,69.59
2022-09-22T09:57:02.896Z,72.41
2022-09-22T09:58:02.898Z,74.08
2022-09-22T09:59:02.933Z,69.76
2022-09-22T10:00:02.853Z,67.35
2022-09-22T10:01:02.869Z,71.36
2022-09-22T10:02:02.265Z,70.83
2022-09-22T10:03:02.252Z,69.92
2022-09-22T10:04:02.263Z,69.72
2022-09-22T10:05:02.801Z,66.91
2022-09-22T10:06:02.233Z,67.71
2022-09-22T10:07:02.465Z,66.17
2022-09-22T10:08:02.380Z,66.78
2022-09-22T10:09:02.458Z,67.38
2022-09-22T10:10:02.350Z,63.56
2022-09-22T10:11:02.492Z,58.75
2022-09-22T10:12:02.819Z,64.17
2022-09-22T10:13:02.779Z,62.46
2022-09-22T10:14:02.778Z,65.77
2022-09-22T10:15:02.775Z,63.87
2022-09-22T10:16:02.884Z,68.15
2022-09-22T10:17:02.440Z,67.35
2022-09-22T10:18:02.431Z,65.04
2022-09-22T10:19:02.300Z,62.03
2022-09-22T10:20:02.291Z,64.34
2022-09-22T10:21:02.337Z,61.13
2022-09-22T10:22:03.037Z,65.51
2022-09-22T10:23:02.950Z,65.81
2022-09-22T10:24:02.882Z,63.40
2022-09-22T10:25:02.810Z,62.90
2022-09-22T10:26:02.803Z,64.51
2022-09-22T10:27:05.296Z,62.77
2022-09-22T10:28:02.387Z,62.17
2022-09-22T10:29:02.414Z,63.57
2022-09-22T10:30:02.521Z,64.48
2022-09-22T10:31:02.394Z,65.15
2022-09-22T10:32:03.090Z,63.34
2022-09-22T10:33:03.113Z,63.04
2022-09-22T10:34:02.613Z,61.14
2022-09-22T10:35:02.686Z,60.94
2022-09-22T10:36:03.854Z,60.74
2022-09-22T10:37:02.463Z,61.34
2022-09-22T10:38:02.432Z,62.14
2022-09-22T10:39:02.592Z,62.21
2022-09-22T10:40:02.576Z,60.01
2022-09-22T10:41:02.451Z,61.51
2022-09-22T10:42:03.013Z,61.71
2022-09-22T10:43:02.642Z,61.21
2022-09-22T10:44:15.479Z,58.50
2022-09-22T10:45:03.096Z,58.11
2022-09-22T10:46:03.214Z,60.61
2022-09-22T10:47:02.784Z,62.18
2022-09-22T10:48:02.634Z,61.38
2022-09-22T10:49:02.631Z,61.18
2022-09-22T10:50:02.648Z,57.48
2022-09-22T10:51:02.621Z,57.78
2022-09-22T10:52:03.236Z,58.28
2022-09-22T10:53:02.859Z,56.87
2022-09-22T10:54:02.736Z,59.95
2022-09-22T10:55:03.183Z,60.35
2022-09-22T10:56:03.129Z,59.05
2022-09-22T10:57:02.740Z,59.45
2022-09-22T10:58:02.502Z,58.25
2022-09-22T10:59:02.529Z,54.05
2022-09-22T11:00:02.556Z,51.54
2022-09-22T11:01:02.516Z,54.27
2022-09-22T11:02:03.116Z,57.37
2022-09-22T11:03:02.818Z,55.98
2022-09-22T11:04:03.146Z,54.67
2022-09-22T11:05:02.961Z,56.07
2022-09-22T11:06:02.962Z,57.98
2022-09-22T11:07:03.661Z,58.75
2022-09-22T11:08:03.431Z,60.85
2022-09-22T11:09:03.605Z,60.62
2022-09-22T11:10:03.231Z,56.52
2022-09-22T11:11:03.531Z,55.62
2022-09-22T11:12:03.843Z,56.42
2022-09-22T11:13:03.324Z,56.52
2022-09-22T11:14:03.322Z,57.12
2022-09-22T11:15:03.479Z,58.09
2022-09-22T11:16:03.337Z,56.49
2022-09-22T11:17:02.398Z,56.49
2022-09-22T11:18:02.428Z,58.99
2022-09-22T11:19:02.464Z,53.59
2022-09-22T11:20:02.481Z,53.49
2022-09-22T11:21:02.427Z,55.72
2022-09-22T11:22:02.466Z,57.52
2022-09-22T11:23:02.750Z,54.60
2022-09-22T11:24:02.734Z,54.22
2022-09-22T11:25:02.705Z,55.32
2022-09-22T11:26:02.497Z,58.12
2022-09-22T11:27:02.970Z,55.99
2022-09-22T11:28:03.451Z,55.40
2022-09-22T11:29:03.361Z,56.79
2022-09-22T11:30:10.526Z,56.29
2022-09-22T11:31:03.462Z,57.17
2022-09-22T11:32:03.416Z,57.87
2022-09-22T11:33:02.432Z,58.56
2022-09-22T11:34:02.676Z,54.94
2022-09-22T11:35:02.693Z,53.57
2022-09-22T11:36:02.553Z,52.29
2022-09-22T11:37:02.592Z,53.89
2022-09-22T11:38:03.171Z,53.99
2022-09-22T11:39:03.156Z,53.19
2022-09-22T11:40:03.340Z,53.59
2022-09-22T11:41:03.103Z,58.80
2022-09-22T11:42:03.012Z,57.76
2022-09-22T11:43:04.533Z,55.07
2022-09-22T11:44:03.822Z,54.77
2022-09-22T11:45:03.496Z,55.34
2022-09-22T11:46:03.592Z,54.04
2022-09-22T11:47:03.389Z,54.34
2022-09-22T11:48:02.580Z,57.04
2022-09-22T11:49:03.190Z,58.41
2022-09-22T11:50:02.819Z,57.21
2022-09-22T11:51:02.875Z,56.68
2022-09-22T11:52:03.128Z,57.78
2022-09-22T11:53:03.166Z,56.66
2022-09-22T11:54:03.109Z,54.27
2022-09-22T11:55:03.050Z,56.13
2022-09-22T11:56:03.219Z,55.24
2022-09-22T11:57:03.199Z,56.40
2022-09-22T11:58:03.245Z,54.21
2022-09-22T11:59:03.328Z,55.21
2022-09-22T12:00:03.410Z,53.41
2022-09-22T12:01:03.403Z,54.61
2022-09-22T12:02:03.255Z,52.62
2022-09-22T12:03:03.771Z,54.01
2022-09-22T12:04:03.578Z,56.01
2022-09-22T12:05:03.270Z,53.02
2022-09-22T12:06:03.141Z,53.52
2022-09-22T12:07:03.483Z,55.13
2022-09-22T12:08:02.819Z,56.13
2022-09-22T12:09:02.572Z,57.63
2022-09-22T12:10:02.346Z,56.93
2022-09-22T12:11:02.795Z,54.74
2022-09-22T12:12:02.570Z,51.35
2022-09-22T12:13:02.424Z,53.94
2022-09-22T12:14:02.325Z,51.05
2022-09-22T12:15:02.352Z,52.27
2022-09-22T12:16:02.382Z,51.77
2022-09-22T12:17:02.486Z,54.57
2022-09-22T12:18:03.038Z,51.27
2022-09-22T12:19:03.073Z,49.48
2022-09-22T12:20:03.038Z,50.17
2022-09-22T12:21:03.376Z,52.27
2022-09-22T12:22:03.125Z,51.77
2022-09-22T12:23:02.924Z,52.14
2022-09-22T12:24:02.975Z,55.33
2022-09-22T12:25:02.607Z,55.80
2022-09-22T12:26:02.825Z,52.12
2022-09-22T12:27:02.823Z,53.78
2022-09-22T12:28:03.520Z,51.10
2022-09-22T12:29:03.280Z,49.21
2022-09-22T12:30:03.322Z,50.08
2022-09-22T12:31:03.413Z,47.11
2022-09-22T12:32:03.458Z,48.21
2022-09-22T12:33:03.147Z,51.67
2022-09-22T12:34:02.920Z,52.86
2022-09-22T12:35:02.858Z,51.54
2022-09-22T12:36:03.298Z,54.24
2022-09-22T12:37:03.408Z,54.11
2022-09-22T12:38:02.917Z,53.31
2022-09-22T12:39:02.858Z,49.80
2022-09-22T12:40:02.951Z,52.59
2022-09-22T12:41:02.732Z,50.38
2022-09-22T12:42:02.617Z,51.77
2022-09-22T12:43:03.307Z,48.59
2022-09-22T12:44:03.335Z,49.98
2022-09-22T12:45:03.213Z,48.89
2022-09-22T12:46:03.125Z,51.75
2022-09-22T12:47:03.272Z,50.35
2022-09-22T12:48:04.791Z,49.93
2022-09-22T12:49:02.928Z,48.84
2022-09-22T12:50:02.878Z,50.93
2022-09-22T12:51:02.834Z,51.52
2022-09-22T12:52:02.860Z,53.19
2022-09-22T12:53:03.251Z,49.02
2022-09-22T12:54:03.287Z,49.02